Audacia — ZCIM3 — position and weather

sailwx.info

Track history (hours):
 
Tides and Currents Weather Stations Pressure Air Temp Water Temp Dewpoint Dewpoint Depression Visibility Wind Speed Wind Dir Waves Ship Positions

Audacia

Last reported at 2014-Jul-30 16:28 UTC. Time now 2014-Jul-30 17:09 UTC.
Position N 36°21' E 025°29'.

; draft 3.2 m.

Type: Pleasure craft. MMSI: 319825000.

Date/timePositionNaut miles runAvg speedWind from/ knotsBaromVisibWave heightAir tempDewpointWater temp
2014-Jul-30 16:28N 36°21' E 025°29'0 0.0
2014-Jul-30 15:31N 36°21' E 025°29'0 0.0
2014-Jul-30 14:28N 36°21' E 025°29'0 0.0
2014-Jul-30 13:31N 36°21' E 025°29'4 0.9
2014-Jul-30 09:33N 36°20' E 025°24'5 0.3
2014-Jul-29 16:27N 36°25' E 025°26'3 3.8
2014-Jul-29 15:33N 36°28' E 025°26'0 0.1
2014-Jul-29 14:30N 36°28' E 025°26'0 0.0
2014-Jul-29 13:30N 36°28' E 025°26'0 0.0
2014-Jul-29 12:30N 36°28' E 025°26'0 0.0
2014-Jul-29 11:30N 36°28' E 025°26'3 2.9
2014-Jul-29 10:33N 36°26' E 025°23'3 0.7
2014-Jul-29 06:33N 36°24' E 025°25'5 4.4
2014-Jul-29 05:29N 36°20' E 025°29'1510.4
2014-Jul-29 04:05N 36°27' E 025°44'712.4
2014-Jul-29 03:33N 36°27' E 025°53'1312.8
2014-Jul-29 02:33N 36°28' E 026°09'12 9.6
2014-Jul-29 01:21N 36°32' E 026°22'  
Track history (hours):
 
Tides and Currents Weather Stations Pressure Air Temp Water Temp Dewpoint Dewpoint Depression Visibility Wind Speed Wind Dir Waves Ship Positions

Audacia

Last reported at 2014-Jul-30 16:28 UTC. Time now 2014-Jul-30 17:09 UTC.
Position N 36°21' E 025°29'.

; draft 3.2 m.

Type: Pleasure craft. MMSI: 319825000.

Date/timePositionNaut miles runAvg speedWind from/ knotsBaromVisibWave heightAir tempDewpointWater temp
2014-Jul-30 16:28N 36°21' E 025°29'0 0.0
2014-Jul-30 15:31N 36°21' E 025°29'0 0.0
2014-Jul-30 14:28N 36°21' E 025°29'0 0.0
2014-Jul-30 13:31N 36°21' E 025°29'4 0.9
2014-Jul-30 09:33N 36°20' E 025°24'5 0.3
2014-Jul-29 16:27N 36°25' E 025°26'3 3.8
2014-Jul-29 15:33N 36°28' E 025°26'0 0.1
2014-Jul-29 14:30N 36°28' E 025°26'0 0.0
2014-Jul-29 13:30N 36°28' E 025°26'0 0.0
2014-Jul-29 12:30N 36°28' E 025°26'0 0.0
2014-Jul-29 11:30N 36°28' E 025°26'3 2.9
2014-Jul-29 10:33N 36°26' E 025°23'3 0.7
2014-Jul-29 06:33N 36°24' E 025°25'5 4.4
2014-Jul-29 05:29N 36°20' E 025°29'1510.4
2014-Jul-29 04:05N 36°27' E 025°44'712.4
2014-Jul-29 03:33N 36°27' E 025°53'1312.8
2014-Jul-29 02:33N 36°28' E 026°09'12 9.6
2014-Jul-29 01:21N 36°32' E 026°22'  

Dump ship's entire track history